Time,TemperatureF,DewpointF,PressureIn,WindDirection,WindDirectionDegrees,WindSpeedMPH,WindSpeedGustMPH,Humidity,HourlyPrecipIn,Conditions,Clouds,dailyrainin,SoftwareType,DateUTC
2017-03-24 00:01:00,53.0,48.6,30.45,SSW,201,0.0,0.0,85,0.00,,,0.00,WeatherCatV1.24B11,2017-03-24 04:01:00,
2017-03-24 00:06:00,52.8,48.4,30.45,SSW,201,0.0,0.0,85,0.00,,,0.00,WeatherCatV1.24B11,2017-03-24 04:06:00,
2017-03-24 00:11:00,52.7,48.6,30.45,SSW,201,0.0,0.0,86,0.00,,,0.00,WeatherCatV1.24B11,2017-03-24 04:11:00,
2017-03-24 00:16:00,52.5,48.4,30.45,SSW,201,0.0,0.0,86,0.00,,,0.00,WeatherCatV1.24B11,2017-03-24 04:16:00,
2017-03-24 00:21:00,52.4,48.3,30.45,SSW,201,0.0,0.0,86,0.00,,,0.00,WeatherCatV1.24B11,2017-03-24 04:21:00,
2017-03-24 00:26:00,52.2,48.1,30.45,SSW,201,0.0,0.0,86,0.00,,,0.00,WeatherCatV1.24B11,2017-03-24 04:26:00,
2017-03-24 00:31:00,52.2,48.5,30.45,SSW,201,0.0,0.0,87,0.00,,,0.00,WeatherCatV1.24B11,2017-03-24 04:31:00,
2017-03-24 00:36:00,52.1,48.3,30.45,SSW,210,0.0,0.0,87,0.00,,,0.00,WeatherCatV1.24B11,2017-03-24 04:36:00,
2017-03-24 00:41:00,52.0,48.2,30.45,SSW,210,0.0,0.0,87,0.00,,,0.00,WeatherCatV1.24B11,2017-03-24 04:41:00,
2017-03-24 00:46:00,51.9,48.2,30.45,SSW,210,0.0,0.0,87,0.00,,,0.00,WeatherCatV1.24B11,2017-03-24 04:46:00,
2017-03-24 00:51:00,51.8,48.0,30.45,SSW,210,0.0,0.0,87,0.00,,,0.00,WeatherCatV1.24B11,2017-03-24 04:51:00,
2017-03-24 00:56:00,51.7,48.0,30.45,SSW,210,0.0,0.0,87,0.00,,,0.00,WeatherCatV1.24B11,2017-03-24 04:56:00,
2017-03-24 01:01:00,51.7,48.0,30.45,SSW,210,0.0,0.0,87,0.00,,,0.00,WeatherCatV1.24B11,2017-03-24 05:01:00,
2017-03-24 01:06:00,51.6,48.2,30.45,SSW,210,0.0,0.0,88,0.00,,,0.00,WeatherCatV1.24B11,2017-03-24 05:06:00,
2017-03-24 01:11:00,51.6,48.2,30.45,SSW,210,0.0,0.0,88,0.00,,,0.00,WeatherCatV1.24B11,2017-03-24 05:11:00,
2017-03-24 01:16:00,51.6,48.2,30.45,SSW,210,0.0,0.0,88,0.00,,,0.00,WeatherCatV1.24B11,2017-03-24 05:16:00,
2017-03-24 01:21:00,51.6,48.2,30.45,SSW,210,0.0,0.0,88,0.00,,,0.00,WeatherCatV1.24B11,2017-03-24 05:21:00,
2017-03-24 01:26:00,51.6,48.2,30.45,SSW,210,0.0,0.0,88,0.00,,,0.00,WeatherCatV1.24B11,2017-03-24 05:26:00,
2017-03-24 01:31:00,51.6,48.5,30.45,SSW,210,0.0,0.0,89,0.00,,,0.00,WeatherCatV1.24B11,2017-03-24 05:31:00,
2017-03-24 01:36:00,51.7,48.6,30.45,SSW,210,0.0,0.0,89,0.00,,,0.00,WeatherCatV1.24B11,2017-03-24 05:36:00,
2017-03-24 01:41:00,51.7,48.6,30.44,SSW,210,0.0,0.0,89,0.00,,,0.00,WeatherCatV1.24B11,2017-03-24 05:41:00,
2017-03-24 01:46:00,51.7,48.6,30.45,SSW,210,0.0,0.0,89,0.00,,,0.00,WeatherCatV1.24B11,2017-03-24 05:46:00,
2017-03-24 01:51:00,51.7,48.6,30.45,SSW,210,0.0,0.0,89,0.00,,,0.00,WeatherCatV1.24B11,2017-03-24 05:51:00,
2017-03-24 01:56:00,51.7,48.6,30.45,SSW,210,0.0,0.0,89,0.00,,,0.00,WeatherCatV1.24B11,2017-03-24 05:56:00,
2017-03-24 02:01:00,51.8,48.7,30.45,SW,218,0.0,0.0,89,0.00,,,0.00,WeatherCatV1.24B11,2017-03-24 06:01:00,
2017-03-24 02:06:00,51.8,48.7,30.45,SW,217,0.0,0.0,89,0.00,,,0.00,WeatherCatV1.24B11,2017-03-24 06:06:00,
2017-03-24 02:11:00,51.8,48.7,30.44,SW,218,0.0,0.0,89,0.00,,,0.00,WeatherCatV1.24B11,2017-03-24 06:11:00,
2017-03-24 02:16:00,51.8,48.7,30.44,SW,217,0.0,0.0,89,0.00,,,0.00,WeatherCatV1.24B11,2017-03-24 06:16:00,
2017-03-24 02:21:00,51.7,48.6,30.44,SW,218,0.0,0.0,89,0.00,,,0.00,WeatherCatV1.24B11,2017-03-24 06:21:00,
2017-03-24 02:26:00,51.7,48.9,30.44,SW,218,0.0,0.0,90,0.00,,,0.00,WeatherCatV1.24B11,2017-03-24 06:26:00,
2017-03-24 02:31:00,51.6,48.8,30.44,SW,217,0.0,0.0,90,0.00,,,0.00,WeatherCatV1.24B11,2017-03-24 06:31:00,
2017-03-24 02:36:00,51.6,48.8,30.43,SW,218,0.0,0.0,90,0.00,,,0.00,WeatherCatV1.24B11,2017-03-24 06:36:00,
2017-03-24 02:41:00,51.6,48.8,30.43,SW,218,0.0,0.0,90,0.00,,,0.00,WeatherCatV1.24B11,2017-03-24 06:41:00,
2017-03-24 02:46:00,51.6,48.8,30.43,SW,218,0.0,0.0,90,0.00,,,0.00,WeatherCatV1.24B11,2017-03-24 06:46:00,
2017-03-24 02:51:00,51.6,48.8,30.43,SW,218,0.0,0.0,90,0.00,,,0.00,WeatherCatV1.24B11,2017-03-24 06:51:00,
2017-03-24 02:56:00,51.5,48.7,30.42,SW,218,0.0,0.0,90,0.00,,,0.00,WeatherCatV1.24B11,2017-03-24 06:56:00,
2017-03-24 03:01:00,51.5,48.7,30.42,SW,217,0.0,0.0,90,0.00,,,0.00,WeatherCatV1.24B11,2017-03-24 07:01:00,
2017-03-24 03:06:00,51.4,48.6,30.42,SW,218,0.0,0.0,90,0.00,,,0.00,WeatherCatV1.24B11,2017-03-24 07:06:00,